Culpeper, VA (22701)

1:54 AM EST on February 13, 2016 (GMT -0500)
Lord Willing Dr. | | Change Station
CLOSE
Current Station
Personal Weather Station
Location: Culpeper, VA
Elevation: 499 ft
Nearby Weather Stations

Elev 499 ft 38.54 °N, 77.94 °W | Updated 13 seconds ago

Overcast
Overcast
23.7 °F
Feels Like 24 °F
N
0.0
Wind Variable Wind from WNW
Gusts 1.0 mph

Today
High -- | Low -- °F
--% Chance of Precip.
Yesterday
High -- | Low -- °F
Precip. -- in
Pressure 30.01 in
Visibility 10.0 miles
Clouds Scattered Clouds 4200 ft
Scattered Clouds 5000 ft
Scattered Clouds 7500 ft
Windchill 24 °F
Dew Point 20 °F
Humidity 84%
Rainfall 0.00 in
Snow Depth Not available.
7:05 AM 5:47 PM
Waxing Crescent, 28% visible
METAR KCJR 130635Z AUTO 23003KT 10SM SCT042 SCT050 SCT075 M05/M06 A3001 RMK AO2 T10471065
Pressure 30.01 in
Visibility 10.0 miles
Clouds Scattered Clouds 4200 ft
Scattered Clouds 5000 ft
Scattered Clouds 7500 ft
Windchill 24 °F
Dew Point 20 °F
Humidity 84%
Rainfall 0.00 in
Snow Depth Not available.
7:05 AM 5:47 PM
Waxing Crescent, 28% visible
METAR KCJR 130635Z AUTO 23003KT 10SM SCT042 SCT050 SCT075 M05/M06 A3001 RMK AO2 T10471065

10-Day Weather Forecast

Almanac

Astronomy

Feb. 13, 2016 Rise Set
Actual Time
Civil Twilight
Nautical Twilight
Astronomical Twilight
Moon
Length of Visible Light
Length of Day
Tomorrow will be .
, % of the Moon is Illuminated

Today's Extremes

State Highs State Lows

Community

WunderPhotos

Upload Photos

1,892,519 photos uploaded!

WunderBlog® & News

Nearby

Air Quality

  Air Quality AQ Index Pollutant
Not available.

Snow Depth

Station Depth Elevation

Earthquake Activity

City Distance Mag. Time & Date
Minimum magnitude displayed is 2.5.

Coastal Water Temperatures

Place Temperature

Stations

Nearby Weather Stations

Station Location Temp. Windchill Dew Point Humidity Wind Precip. Elev Updated Type
                   

Watches & Warnings

There are currently no watches in effect.